UAE8LT OMDB-DTTA
Flight info
| Callsign | UAE8LT |
|---|---|
| Flight time | 6h 13m |
| Altitude | 38000 |
| Route | SENPA DCT ALPOB L768 VATIM DCT MENLI/N0491F400 L677 CVO L617 NABSI DCT METRU UP868 ARLOS DCT DIRKA DCT TOVMA DCT DINUX DCT SONAK R781 DIDON |
| Aircraft | A359/H-SDE2E3GHIJ3J4J5LM1ORWXY/LB1D1 |
Departure
| Time | 2026-04-21 09:17 |
|---|---|
| Airport | Dubai International Airport (OMDB) |
Arrival
| Time | 2026-04-21 15:31 |
|---|---|
| Airport | Tunis Carthage International Airport (DTTA) |
| Time | Latitude | Longitude | Altitude | Speed | Heading |
|---|---|---|---|---|---|
| 2026-04-21 09:03 | 25.24232 | 55.37171 | 42 ft | 0 kts | 31° |
| 2026-04-21 09:06 | 25.24231 | 55.37170 | 43 ft | 1 kts | 31° |
| 2026-04-21 09:07 | 25.24216 | 55.37160 | 42 ft | 3 kts | 31° |
| 2026-04-21 09:07 | 25.24198 | 55.37149 | 42 ft | 3 kts | 31° |
| 2026-04-21 09:07 | 25.24185 | 55.37140 | 39 ft | 3 kts | 36° |
| 2026-04-21 09:07 | 25.24173 | 55.37130 | 39 ft | 3 kts | 65° |
| 2026-04-21 09:08 | 25.24169 | 55.37115 | 39 ft | 3 kts | 96° |
| 2026-04-21 09:08 | 25.24173 | 55.37095 | 40 ft | 3 kts | 113° |
| 2026-04-21 09:08 | 25.24181 | 55.37076 | 39 ft | 3 kts | 121° |
| 2026-04-21 09:08 | 25.24183 | 55.37071 | 38 ft | 5 kts | 121° |
| 2026-04-21 09:11 | 25.24174 | 55.37088 | 41 ft | 6 kts | 122° |
| 2026-04-21 09:11 | 25.24139 | 55.37150 | 42 ft | 13 kts | 122° |
| 2026-04-21 09:11 | 25.24088 | 55.37244 | 43 ft | 14 kts | 120° |
| 2026-04-21 09:11 | 25.24038 | 55.37337 | 45 ft | 14 kts | 121° |
| 2026-04-21 09:12 | 25.23988 | 55.37428 | 46 ft | 14 kts | 117° |
| 2026-04-21 09:12 | 25.23976 | 55.37527 | 47 ft | 13 kts | 76° |
| 2026-04-21 09:12 | 25.24024 | 55.37607 | 48 ft | 13 kts | 40° |
| 2026-04-21 09:12 | 25.24101 | 55.37663 | 48 ft | 13 kts | 33° |
| 2026-04-21 09:13 | 25.24183 | 55.37717 | 48 ft | 14 kts | 30° |
| 2026-04-21 09:13 | 25.24268 | 55.37772 | 48 ft | 14 kts | 32° |
| 2026-04-21 09:13 | 25.24353 | 55.37836 | 46 ft | 15 kts | 35° |
| 2026-04-21 09:13 | 25.24435 | 55.37899 | 50 ft | 14 kts | 34° |
| 2026-04-21 09:14 | 25.24511 | 55.37955 | 50 ft | 13 kts | 32° |
| 2026-04-21 09:14 | 25.24591 | 55.38011 | 50 ft | 15 kts | 32° |
| 2026-04-21 09:14 | 25.24624 | 55.38034 | 49 ft | 0 kts | 32° |
| 2026-04-21 09:15 | 25.24659 | 55.38059 | 49 ft | 10 kts | 32° |
| 2026-04-21 09:15 | 25.24736 | 55.38099 | 46 ft | 13 kts | 1° |
| 2026-04-21 09:15 | 25.24796 | 55.38033 | 47 ft | 14 kts | 303° |
| 2026-04-21 09:16 | 25.24853 | 55.37936 | 46 ft | 20 kts | 302° |
| 2026-04-21 09:16 | 25.25022 | 55.37633 | 46 ft | 75 kts | 301° |
| 2026-04-21 09:16 | 25.25392 | 55.36963 | 39 ft | 128 kts | 301° |
| 2026-04-21 09:16 | 25.25938 | 55.35975 | 45 ft | 171 kts | 302° |
| 2026-04-21 09:17 | 25.26540 | 55.34869 | 652 ft | 163 kts | 302° |
| 2026-04-21 09:17 | 25.27147 | 55.33768 | 1064 ft | 177 kts | 304° |
| 2026-04-21 09:17 | 25.27834 | 55.32559 | 1299 ft | 197 kts | 304° |
| 2026-04-21 09:17 | 25.28596 | 55.31205 | 1558 ft | 218 kts | 304° |
| 2026-04-21 09:18 | 25.29370 | 55.29699 | 2021 ft | 231 kts | 295° |
| 2026-04-21 09:18 | 25.29725 | 55.27958 | 2732 ft | 234 kts | 278° |
| 2026-04-21 09:18 | 25.29865 | 55.26163 | 3308 ft | 237 kts | 276° |
| 2026-04-21 09:18 | 25.29992 | 55.24330 | 3797 ft | 242 kts | 276° |
| 2026-04-21 09:19 | 25.30131 | 55.22466 | 4333 ft | 245 kts | 275° |
| 2026-04-21 09:19 | 25.30274 | 55.20579 | 4850 ft | 248 kts | 275° |
| 2026-04-21 09:19 | 25.30391 | 55.18664 | 5397 ft | 249 kts | 269° |
| 2026-04-21 09:19 | 25.30318 | 55.16726 | 5792 ft | 260 kts | 264° |
| 2026-04-21 09:20 | 25.30159 | 55.14664 | 6054 ft | 275 kts | 263° |
| 2026-04-21 09:20 | 25.29984 | 55.12531 | 6523 ft | 281 kts | 264° |
| 2026-04-21 09:20 | 25.29812 | 55.10376 | 7131 ft | 281 kts | 264° |
| 2026-04-21 09:20 | 25.29646 | 55.08257 | 7789 ft | 280 kts | 264° |
| 2026-04-21 09:21 | 25.29480 | 55.06115 | 8485 ft | 279 kts | 264° |
| 2026-04-21 09:21 | 25.29314 | 55.03974 | 9211 ft | 279 kts | 264° |
| 2026-04-21 09:21 | 25.29149 | 55.01841 | 9923 ft | 278 kts | 264° |
| 2026-04-21 09:21 | 25.28981 | 54.99686 | 10394 ft | 288 kts | 264° |
| 2026-04-21 09:22 | 25.28803 | 54.97413 | 10631 ft | 305 kts | 264° |
| 2026-04-21 09:22 | 25.28616 | 54.95012 | 10851 ft | 322 kts | 264° |
| 2026-04-21 09:22 | 25.28464 | 54.92478 | 11071 ft | 337 kts | 267° |
| 2026-04-21 09:22 | 25.28402 | 54.89839 | 11294 ft | 350 kts | 268° |
| 2026-04-21 09:23 | 25.28347 | 54.87149 | 11690 ft | 357 kts | 267° |
| 2026-04-21 09:23 | 25.28282 | 54.84363 | 12204 ft | 360 kts | 267° |
| 2026-04-21 09:23 | 25.28213 | 54.81619 | 12717 ft | 363 kts | 267° |
| 2026-04-21 09:23 | 25.28135 | 54.78810 | 13239 ft | 366 kts | 267° |
| 2026-04-21 09:24 | 25.28073 | 54.75984 | 13744 ft | 370 kts | 269° |
| 2026-04-21 09:24 | 25.28388 | 54.73155 | 14194 ft | 374 kts | 281° |
| 2026-04-21 09:24 | 25.29052 | 54.70365 | 14674 ft | 376 kts | 284° |
| 2026-04-21 09:24 | 25.29772 | 54.67576 | 15136 ft | 379 kts | 284° |
| 2026-04-21 09:25 | 25.30497 | 54.64763 | 15596 ft | 381 kts | 284° |
| 2026-04-21 09:25 | 25.31220 | 54.61934 | 16061 ft | 383 kts | 284° |
| 2026-04-21 09:25 | 25.31943 | 54.59090 | 16512 ft | 386 kts | 284° |
| 2026-04-21 09:25 | 25.32669 | 54.56222 | 16948 ft | 388 kts | 284° |
| 2026-04-21 09:26 | 25.33387 | 54.53376 | 17398 ft | 391 kts | 284° |
| 2026-04-21 09:26 | 25.34123 | 54.50469 | 17841 ft | 393 kts | 284° |
| 2026-04-21 09:26 | 25.34855 | 54.47551 | 18254 ft | 395 kts | 284° |
| 2026-04-21 09:26 | 25.35588 | 54.44607 | 18634 ft | 398 kts | 283° |
| 2026-04-21 09:27 | 25.36324 | 54.41648 | 19022 ft | 400 kts | 283° |
| 2026-04-21 09:27 | 25.37064 | 54.38671 | 19412 ft | 402 kts | 283° |
| 2026-04-21 09:27 | 25.37807 | 54.35680 | 19807 ft | 404 kts | 283° |
| 2026-04-21 09:27 | 25.38556 | 54.32667 | 20204 ft | 407 kts | 283° |
| 2026-04-21 09:28 | 25.39308 | 54.29637 | 20604 ft | 410 kts | 283° |
| 2026-04-21 09:28 | 25.40064 | 54.26594 | 21005 ft | 412 kts | 283° |
| 2026-04-21 09:28 | 25.40826 | 54.23525 | 21402 ft | 415 kts | 283° |
| 2026-04-21 09:28 | 25.41591 | 54.20438 | 21797 ft | 417 kts | 283° |
| 2026-04-21 09:29 | 25.42351 | 54.17368 | 22183 ft | 420 kts | 283° |
| 2026-04-21 09:29 | 25.43125 | 54.14240 | 22590 ft | 423 kts | 283° |
| 2026-04-21 09:29 | 25.43903 | 54.11091 | 22970 ft | 425 kts | 283° |
| 2026-04-21 09:29 | 25.44686 | 54.07923 | 23364 ft | 428 kts | 283° |
| 2026-04-21 09:30 | 25.45473 | 54.04731 | 23698 ft | 431 kts | 283° |
| 2026-04-21 09:30 | 25.46263 | 54.01527 | 24069 ft | 432 kts | 283° |
| 2026-04-21 09:30 | 25.47057 | 53.98304 | 24470 ft | 433 kts | 283° |
| 2026-04-21 09:30 | 25.47840 | 53.95122 | 24865 ft | 435 kts | 283° |
| 2026-04-21 09:31 | 25.48635 | 53.91885 | 25265 ft | 436 kts | 283° |
| 2026-04-21 09:31 | 25.49432 | 53.88640 | 25659 ft | 438 kts | 283° |
| 2026-04-21 09:31 | 25.50232 | 53.85378 | 26057 ft | 440 kts | 283° |
| 2026-04-21 09:31 | 25.51033 | 53.82106 | 26450 ft | 441 kts | 283° |
| 2026-04-21 09:32 | 25.51838 | 53.78818 | 26840 ft | 443 kts | 283° |
| 2026-04-21 09:32 | 25.52644 | 53.75517 | 27222 ft | 445 kts | 283° |
| 2026-04-21 09:32 | 25.53453 | 53.72204 | 27607 ft | 447 kts | 283° |
| 2026-04-21 09:32 | 25.54265 | 53.68874 | 27979 ft | 449 kts | 283° |
| 2026-04-21 09:33 | 25.55080 | 53.65529 | 28334 ft | 451 kts | 283° |
| 2026-04-21 09:33 | 25.55898 | 53.62171 | 28688 ft | 453 kts | 283° |
| 2026-04-21 09:33 | 25.56720 | 53.58787 | 29027 ft | 455 kts | 283° |
| 2026-04-21 09:33 | 25.57544 | 53.55394 | 29365 ft | 457 kts | 283° |
| 2026-04-21 09:34 | 25.58371 | 53.51987 | 29696 ft | 459 kts | 283° |
| 2026-04-21 09:34 | 25.59202 | 53.48558 | 29989 ft | 462 kts | 283° |
| 2026-04-21 09:34 | 25.60035 | 53.45116 | 30263 ft | 463 kts | 283° |
| 2026-04-21 09:34 | 25.60871 | 53.41660 | 30557 ft | 464 kts | 283° |
| 2026-04-21 09:35 | 25.61697 | 53.38242 | 30846 ft | 465 kts | 283° |
| 2026-04-21 09:35 | 25.62533 | 53.34776 | 31127 ft | 466 kts | 283° |
| 2026-04-21 09:35 | 25.63370 | 53.31303 | 31407 ft | 466 kts | 283° |
| 2026-04-21 09:35 | 25.64208 | 53.27825 | 31691 ft | 467 kts | 283° |
| 2026-04-21 09:36 | 25.65042 | 53.24358 | 32117 ft | 464 kts | 283° |
| 2026-04-21 09:36 | 25.65871 | 53.20910 | 32574 ft | 460 kts | 283° |
| 2026-04-21 09:36 | 25.66690 | 53.17498 | 33050 ft | 456 kts | 283° |
| 2026-04-21 09:36 | 25.67492 | 53.14153 | 33483 ft | 452 kts | 283° |
| 2026-04-21 09:37 | 25.68296 | 53.10791 | 33867 ft | 450 kts | 283° |
| 2026-04-21 09:37 | 25.69096 | 53.07446 | 34206 ft | 447 kts | 283° |
| 2026-04-21 09:37 | 25.69905 | 53.04131 | 34563 ft | 444 kts | 285° |
| 2026-04-21 09:37 | 25.70953 | 53.00924 | 34956 ft | 441 kts | 291° |
| 2026-04-21 09:38 | 25.72260 | 52.97863 | 35343 ft | 437 kts | 294° |
| 2026-04-21 09:38 | 25.73629 | 52.94859 | 35715 ft | 434 kts | 295° |
| 2026-04-21 09:38 | 25.75017 | 52.91902 | 36056 ft | 431 kts | 295° |
| 2026-04-21 09:38 | 25.76409 | 52.88975 | 36365 ft | 428 kts | 295° |
| 2026-04-21 09:39 | 25.77798 | 52.86065 | 36665 ft | 425 kts | 295° |
| 2026-04-21 09:39 | 25.79159 | 52.83206 | 36958 ft | 422 kts | 295° |
| 2026-04-21 09:39 | 25.80522 | 52.80334 | 37235 ft | 419 kts | 295° |
| 2026-04-21 09:39 | 25.81877 | 52.77468 | 37519 ft | 416 kts | 295° |
| 2026-04-21 09:40 | 25.83214 | 52.74632 | 37770 ft | 415 kts | 295° |
| 2026-04-21 09:40 | 25.84553 | 52.71786 | 37821 ft | 417 kts | 295° |
| 2026-04-21 09:40 | 25.87249 | 52.66046 | 37821 ft | 420 kts | 295° |
| 2026-04-21 09:41 | 25.89932 | 52.60331 | 37823 ft | 418 kts | 295° |
| 2026-04-21 09:41 | 25.92511 | 52.54643 | 37826 ft | 408 kts | 293° |
| 2026-04-21 09:42 | 25.94975 | 52.48973 | 37826 ft | 407 kts | 293° |
| 2026-04-21 09:42 | 25.97440 | 52.43312 | 37832 ft | 407 kts | 293° |
| 2026-04-21 09:43 | 25.99925 | 52.37664 | 37835 ft | 406 kts | 294° |
| 2026-04-21 09:43 | 26.02439 | 52.32040 | 37836 ft | 406 kts | 294° |
| 2026-04-21 09:44 | 26.04940 | 52.26452 | 37839 ft | 405 kts | 294° |
| 2026-04-21 09:44 | 26.07445 | 52.20837 | 37843 ft | 405 kts | 293° |
| 2026-04-21 09:45 | 26.09944 | 52.15222 | 37846 ft | 404 kts | 293° |
| 2026-04-21 09:45 | 26.12437 | 52.09612 | 37848 ft | 403 kts | 293° |
| 2026-04-21 09:46 | 26.14921 | 52.04015 | 37854 ft | 403 kts | 293° |
| 2026-04-21 09:46 | 26.17392 | 51.98443 | 37857 ft | 403 kts | 293° |
| 2026-04-21 09:47 | 26.19911 | 51.92856 | 37855 ft | 403 kts | 294° |
| 2026-04-21 09:47 | 26.22407 | 51.87254 | 37859 ft | 403 kts | 293° |
| 2026-04-21 09:48 | 26.24865 | 51.81648 | 37864 ft | 403 kts | 292° |
| 2026-04-21 09:48 | 26.27331 | 51.76068 | 37867 ft | 403 kts | 293° |
| 2026-04-21 09:49 | 26.29828 | 51.70468 | 37866 ft | 403 kts | 293° |
| 2026-04-21 09:49 | 26.32329 | 51.64863 | 37876 ft | 403 kts | 293° |
| 2026-04-21 09:50 | 26.33987 | 51.61152 | 37877 ft | 403 kts | 293° |
| 2026-04-21 09:50 | 26.37297 | 51.53677 | 37875 ft | 403 kts | 291° |
| 2026-04-21 09:51 | 26.39324 | 51.47857 | 37879 ft | 402 kts | 287° |
| 2026-04-21 09:51 | 26.41213 | 51.41993 | 37879 ft | 402 kts | 287° |
| 2026-04-21 09:52 | 26.42766 | 51.37098 | 37885 ft | 402 kts | 287° |
| 2026-04-21 09:52 | 26.44645 | 51.31211 | 37885 ft | 403 kts | 287° |
| 2026-04-21 09:53 | 26.46525 | 51.25313 | 37888 ft | 403 kts | 287° |
| 2026-04-21 09:53 | 26.48396 | 51.19452 | 37885 ft | 403 kts | 287° |
| 2026-04-21 09:54 | 26.50271 | 51.13554 | 37893 ft | 403 kts | 287° |
| 2026-04-21 09:54 | 26.52148 | 51.07645 | 37890 ft | 403 kts | 287° |
| 2026-04-21 09:55 | 26.54023 | 51.01739 | 37895 ft | 403 kts | 287° |
| 2026-04-21 09:55 | 26.55897 | 50.95827 | 37896 ft | 403 kts | 287° |
| 2026-04-21 09:56 | 26.57757 | 50.89953 | 37900 ft | 403 kts | 287° |
| 2026-04-21 09:56 | 26.59602 | 50.84031 | 37900 ft | 403 kts | 286° |
| 2026-04-21 09:57 | 26.61429 | 50.78102 | 37900 ft | 403 kts | 286° |
| 2026-04-21 09:57 | 26.63256 | 50.72179 | 37901 ft | 403 kts | 286° |
| 2026-04-21 09:58 | 26.65067 | 50.66300 | 37902 ft | 402 kts | 285° |
| 2026-04-21 09:58 | 26.66829 | 50.60362 | 37902 ft | 402 kts | 285° |
| 2026-04-21 09:59 | 26.68570 | 50.54421 | 37906 ft | 402 kts | 285° |
| 2026-04-21 09:59 | 26.70316 | 50.48488 | 37910 ft | 402 kts | 285° |
| 2026-04-21 10:00 | 26.71949 | 50.42525 | 37912 ft | 401 kts | 283° |
| 2026-04-21 10:00 | 26.73443 | 50.36525 | 37911 ft | 400 kts | 283° |
| 2026-04-21 10:01 | 26.74942 | 50.30537 | 37914 ft | 400 kts | 283° |
| 2026-04-21 10:01 | 26.76497 | 50.24550 | 37915 ft | 401 kts | 284° |
| 2026-04-21 10:02 | 26.79182 | 50.15684 | 37913 ft | 401 kts | 286° |
| 2026-04-21 10:03 | 26.80974 | 50.09819 | 37918 ft | 400 kts | 285° |
| 2026-04-21 10:03 | 26.82743 | 50.03912 | 37915 ft | 399 kts | 285° |
| 2026-04-21 10:04 | 26.84502 | 49.97994 | 37915 ft | 399 kts | 285° |
| 2026-04-21 10:04 | 26.86238 | 49.92132 | 37912 ft | 399 kts | 285° |
| 2026-04-21 10:05 | 26.87982 | 49.86227 | 37909 ft | 399 kts | 285° |
| 2026-04-21 10:05 | 26.89723 | 49.80330 | 37903 ft | 399 kts | 285° |
| 2026-04-21 10:06 | 26.91464 | 49.74425 | 37903 ft | 399 kts | 285° |
| 2026-04-21 10:06 | 26.93206 | 49.68508 | 37896 ft | 399 kts | 284° |
| 2026-04-21 10:07 | 26.94933 | 49.62634 | 37893 ft | 399 kts | 284° |
| 2026-04-21 10:07 | 26.96665 | 49.56729 | 37890 ft | 399 kts | 284° |
| 2026-04-21 10:08 | 26.98396 | 49.50819 | 37888 ft | 398 kts | 284° |
| 2026-04-21 10:08 | 27.00113 | 49.44950 | 37885 ft | 398 kts | 284° |
| 2026-04-21 10:09 | 27.02264 | 49.39201 | 37887 ft | 403 kts | 292° |
| 2026-04-21 10:09 | 27.04958 | 49.33678 | 37881 ft | 404 kts | 294° |
| 2026-04-21 10:10 | 27.07736 | 49.28191 | 37882 ft | 404 kts | 294° |
| 2026-04-21 10:10 | 27.10516 | 49.22703 | 37890 ft | 404 kts | 294° |
| 2026-04-21 10:11 | 27.13285 | 49.17203 | 37892 ft | 404 kts | 294° |
| 2026-04-21 10:11 | 27.16045 | 49.11698 | 37891 ft | 404 kts | 294° |
| 2026-04-21 10:12 | 27.18784 | 49.06227 | 37875 ft | 404 kts | 294° |
| 2026-04-21 10:12 | 27.21542 | 49.00713 | 37880 ft | 404 kts | 294° |
| 2026-04-21 10:13 | 27.24301 | 48.95199 | 37887 ft | 404 kts | 293° |
| 2026-04-21 10:13 | 27.27049 | 48.89681 | 37894 ft | 404 kts | 293° |
| 2026-04-21 10:14 | 27.29782 | 48.84183 | 37896 ft | 404 kts | 293° |
| 2026-04-21 10:14 | 27.32524 | 48.78666 | 37902 ft | 404 kts | 293° |
| 2026-04-21 10:15 | 27.35269 | 48.73139 | 37893 ft | 404 kts | 293° |
| 2026-04-21 10:15 | 27.38004 | 48.67624 | 37899 ft | 403 kts | 293° |
| 2026-04-21 10:16 | 27.40721 | 48.62138 | 37902 ft | 403 kts | 293° |
| 2026-04-21 10:16 | 27.43448 | 48.56627 | 37905 ft | 402 kts | 293° |
| 2026-04-21 10:17 | 27.46173 | 48.51109 | 37907 ft | 403 kts | 293° |
| 2026-04-21 10:17 | 27.48874 | 48.45634 | 37907 ft | 403 kts | 293° |
| 2026-04-21 10:18 | 27.51592 | 48.40118 | 37909 ft | 403 kts | 293° |
| 2026-04-21 10:18 | 27.54309 | 48.34598 | 37913 ft | 403 kts | 293° |
| 2026-04-21 10:19 | 27.57026 | 48.29069 | 37907 ft | 403 kts | 293° |
| 2026-04-21 10:19 | 27.59745 | 48.23546 | 37908 ft | 403 kts | 293° |
| 2026-04-21 10:20 | 27.62447 | 48.18045 | 37905 ft | 403 kts | 293° |
| 2026-04-21 10:20 | 27.65155 | 48.12524 | 37908 ft | 403 kts | 293° |
| 2026-04-21 10:21 | 27.67866 | 48.06991 | 37913 ft | 402 kts | 293° |
| 2026-04-21 10:21 | 27.70575 | 48.01462 | 37910 ft | 402 kts | 293° |
| 2026-04-21 10:22 | 27.73274 | 47.95928 | 37912 ft | 402 kts | 293° |
| 2026-04-21 10:22 | 27.75963 | 47.90395 | 37912 ft | 402 kts | 293° |
| 2026-04-21 10:23 | 27.78650 | 47.84864 | 37908 ft | 402 kts | 293° |
| 2026-04-21 10:23 | 27.81323 | 47.79358 | 37905 ft | 401 kts | 293° |
| 2026-04-21 10:24 | 27.83941 | 47.73792 | 37912 ft | 398 kts | 289° |
| 2026-04-21 10:24 | 27.85929 | 47.67979 | 37914 ft | 395 kts | 285° |
| 2026-04-21 10:25 | 27.87754 | 47.62147 | 37912 ft | 395 kts | 285° |
| 2026-04-21 10:25 | 27.89556 | 47.56285 | 37913 ft | 395 kts | 285° |
| 2026-04-21 10:26 | 27.91361 | 47.50423 | 37909 ft | 395 kts | 285° |
| 2026-04-21 10:26 | 27.93173 | 47.44556 | 37910 ft | 394 kts | 285° |
| 2026-04-21 10:27 | 27.94984 | 47.38690 | 37911 ft | 394 kts | 285° |
| 2026-04-21 10:27 | 27.96790 | 47.32832 | 37912 ft | 394 kts | 285° |
| 2026-04-21 10:28 | 27.98592 | 47.26974 | 37911 ft | 394 kts | 285° |
| 2026-04-21 10:28 | 28.00383 | 47.21143 | 37917 ft | 394 kts | 285° |
| 2026-04-21 10:29 | 28.02180 | 47.15282 | 37915 ft | 393 kts | 285° |
| 2026-04-21 10:29 | 28.03972 | 47.09425 | 37920 ft | 393 kts | 285° |
| 2026-04-21 10:30 | 28.05761 | 47.03570 | 37915 ft | 393 kts | 285° |
| 2026-04-21 10:30 | 28.07533 | 46.97758 | 37918 ft | 393 kts | 284° |
| 2026-04-21 10:31 | 28.09317 | 46.91894 | 37921 ft | 394 kts | 285° |
| 2026-04-21 10:31 | 28.11116 | 46.86014 | 37923 ft | 395 kts | 286° |
| 2026-04-21 10:32 | 28.13055 | 46.80185 | 37921 ft | 396 kts | 287° |
| 2026-04-21 10:32 | 28.15034 | 46.74372 | 37915 ft | 395 kts | 287° |
| 2026-04-21 10:33 | 28.16994 | 46.68543 | 37917 ft | 395 kts | 287° |
| 2026-04-21 10:33 | 28.18932 | 46.62723 | 37918 ft | 394 kts | 287° |
| 2026-04-21 10:34 | 28.20852 | 46.56930 | 37917 ft | 394 kts | 287° |
| 2026-04-21 10:34 | 28.22776 | 46.51115 | 37919 ft | 394 kts | 287° |
| 2026-04-21 10:35 | 28.24703 | 46.45287 | 37923 ft | 394 kts | 287° |
| 2026-04-21 10:35 | 28.26625 | 46.39464 | 37929 ft | 393 kts | 287° |
| 2026-04-21 10:36 | 28.28530 | 46.33684 | 37931 ft | 393 kts | 287° |
| 2026-04-21 10:36 | 28.30442 | 46.27870 | 37938 ft | 393 kts | 287° |
| 2026-04-21 10:37 | 28.32353 | 46.22054 | 37944 ft | 393 kts | 286° |
| 2026-04-21 10:37 | 28.34259 | 46.16239 | 37940 ft | 393 kts | 286° |
| 2026-04-21 10:38 | 28.36168 | 46.10425 | 37943 ft | 393 kts | 287° |
| 2026-04-21 10:38 | 28.38264 | 46.04680 | 37948 ft | 394 kts | 289° |
| 2026-04-21 10:39 | 28.40439 | 45.99001 | 37930 ft | 394 kts | 289° |
| 2026-04-21 10:39 | 28.42602 | 45.93281 | 37929 ft | 394 kts | 288° |
| 2026-04-21 10:40 | 28.44737 | 45.87548 | 37926 ft | 393 kts | 288° |
| 2026-04-21 10:40 | 28.46858 | 45.81819 | 37926 ft | 393 kts | 288° |
| 2026-04-21 10:41 | 28.48620 | 45.77050 | 37923 ft | 393 kts | 288° |
| 2026-04-21 10:41 | 28.51084 | 45.70378 | 37915 ft | 393 kts | 288° |
| 2026-04-21 10:42 | 28.52846 | 45.65602 | 37915 ft | 393 kts | 288° |
| 2026-04-21 10:42 | 28.54963 | 45.59854 | 37916 ft | 393 kts | 288° |
| 2026-04-21 10:43 | 28.57075 | 45.54109 | 37914 ft | 393 kts | 288° |
| 2026-04-21 10:43 | 28.59174 | 45.48394 | 37917 ft | 393 kts | 288° |
| 2026-04-21 10:44 | 28.61279 | 45.42652 | 37913 ft | 393 kts | 288° |
| 2026-04-21 10:44 | 28.63385 | 45.36899 | 37913 ft | 393 kts | 288° |
| 2026-04-21 10:45 | 28.65488 | 45.31146 | 37914 ft | 393 kts | 288° |
| 2026-04-21 10:45 | 28.67571 | 45.25438 | 37920 ft | 393 kts | 288° |
| 2026-04-21 10:46 | 28.69670 | 45.19676 | 37928 ft | 393 kts | 288° |
| 2026-04-21 10:46 | 28.71763 | 45.13924 | 37913 ft | 393 kts | 288° |
| 2026-04-21 10:47 | 28.73853 | 45.08170 | 37909 ft | 393 kts | 288° |
| 2026-04-21 10:47 | 28.75939 | 45.02417 | 37912 ft | 393 kts | 288° |
| 2026-04-21 10:48 | 28.78010 | 44.96698 | 37922 ft | 392 kts | 288° |
| 2026-04-21 10:48 | 28.80091 | 44.90940 | 37922 ft | 393 kts | 288° |
| 2026-04-21 10:49 | 28.82169 | 44.85184 | 37923 ft | 392 kts | 288° |
| 2026-04-21 10:49 | 28.84243 | 44.79429 | 37912 ft | 392 kts | 288° |
| 2026-04-21 10:50 | 28.85990 | 44.73550 | 37905 ft | 388 kts | 279° |
| 2026-04-21 10:50 | 28.86879 | 44.67528 | 37910 ft | 387 kts | 276° |
| 2026-04-21 10:51 | 28.87607 | 44.61449 | 37912 ft | 387 kts | 276° |
| 2026-04-21 10:51 | 28.88313 | 44.55362 | 37916 ft | 387 kts | 276° |
| 2026-04-21 10:52 | 28.89026 | 44.49279 | 37908 ft | 387 kts | 276° |
| 2026-04-21 10:52 | 28.89746 | 44.43195 | 37915 ft | 387 kts | 276° |
| 2026-04-21 10:53 | 28.90464 | 44.37116 | 37914 ft | 387 kts | 276° |
| 2026-04-21 10:53 | 28.91182 | 44.31023 | 37911 ft | 387 kts | 276° |
| 2026-04-21 10:54 | 28.91888 | 44.24998 | 37910 ft | 387 kts | 276° |
| 2026-04-21 10:54 | 28.92599 | 44.18898 | 37906 ft | 387 kts | 276° |
| 2026-04-21 10:55 | 28.93306 | 44.12807 | 37909 ft | 387 kts | 276° |
| 2026-04-21 10:55 | 28.94006 | 44.06749 | 37911 ft | 387 kts | 276° |
| 2026-04-21 10:56 | 28.94708 | 44.00662 | 37913 ft | 387 kts | 276° |
| 2026-04-21 10:56 | 28.95408 | 43.94571 | 37911 ft | 387 kts | 276° |
| 2026-04-21 10:57 | 28.96106 | 43.88469 | 37908 ft | 387 kts | 275° |
| 2026-04-21 10:57 | 28.96794 | 43.82420 | 37907 ft | 387 kts | 275° |
| 2026-04-21 10:58 | 28.97484 | 43.76330 | 37909 ft | 387 kts | 275° |
| 2026-04-21 10:58 | 28.98174 | 43.70227 | 37904 ft | 387 kts | 275° |
| 2026-04-21 10:59 | 28.98858 | 43.64137 | 37907 ft | 387 kts | 275° |
| 2026-04-21 10:59 | 28.99532 | 43.58122 | 37906 ft | 387 kts | 275° |
| 2026-04-21 11:00 | 29.00215 | 43.51996 | 37907 ft | 387 kts | 275° |
| 2026-04-21 11:00 | 29.00891 | 43.45917 | 37910 ft | 386 kts | 275° |
| 2026-04-21 11:01 | 29.01567 | 43.39801 | 37918 ft | 386 kts | 275° |
| 2026-04-21 11:01 | 29.02238 | 43.33708 | 37914 ft | 386 kts | 275° |
| 2026-04-21 11:02 | 29.03236 | 43.24601 | 37914 ft | 386 kts | 275° |
| 2026-04-21 11:02 | 29.03899 | 43.18509 | 37913 ft | 386 kts | 275° |
| 2026-04-21 11:03 | 29.04560 | 43.12411 | 37912 ft | 386 kts | 275° |
| 2026-04-21 11:03 | 29.05219 | 43.06321 | 37910 ft | 386 kts | 275° |
| 2026-04-21 11:04 | 29.05871 | 43.00260 | 37914 ft | 386 kts | 275° |
| 2026-04-21 11:04 | 29.06525 | 42.94161 | 37918 ft | 386 kts | 275° |
| 2026-04-21 11:05 | 29.07176 | 42.88060 | 37918 ft | 386 kts | 275° |
| 2026-04-21 11:05 | 29.07822 | 42.81971 | 37919 ft | 386 kts | 275° |
| 2026-04-21 11:06 | 29.08466 | 42.75871 | 37923 ft | 386 kts | 275° |
| 2026-04-21 11:06 | 29.09108 | 42.69772 | 37923 ft | 386 kts | 275° |
| 2026-04-21 11:07 | 29.09744 | 42.63716 | 37927 ft | 386 kts | 275° |
| 2026-04-21 11:07 | 29.10380 | 42.57618 | 37930 ft | 386 kts | 275° |
| 2026-04-21 11:08 | 29.11013 | 42.51517 | 37935 ft | 386 kts | 275° |
| 2026-04-21 11:08 | 29.11643 | 42.45416 | 37934 ft | 386 kts | 275° |
| 2026-04-21 11:09 | 29.12267 | 42.39354 | 37934 ft | 386 kts | 275° |
| 2026-04-21 11:09 | 29.12892 | 42.33261 | 37937 ft | 385 kts | 275° |
| 2026-04-21 11:10 | 29.13513 | 42.27165 | 37943 ft | 386 kts | 275° |
| 2026-04-21 11:10 | 29.14132 | 42.21070 | 37946 ft | 385 kts | 275° |
| 2026-04-21 11:11 | 29.14748 | 42.14971 | 37947 ft | 385 kts | 275° |
| 2026-04-21 11:11 | 29.15358 | 42.08910 | 37951 ft | 386 kts | 275° |
| 2026-04-21 11:12 | 29.15971 | 42.02798 | 37953 ft | 385 kts | 275° |
| 2026-04-21 11:12 | 29.16578 | 41.96702 | 37953 ft | 385 kts | 275° |
| 2026-04-21 11:13 | 29.17181 | 41.90626 | 37963 ft | 385 kts | 275° |
| 2026-04-21 11:13 | 29.17782 | 41.84535 | 37964 ft | 385 kts | 275° |
| 2026-04-21 11:14 | 29.18383 | 41.78420 | 37967 ft | 385 kts | 275° |
| 2026-04-21 11:14 | 29.18976 | 41.72363 | 37970 ft | 386 kts | 275° |
| 2026-04-21 11:15 | 29.19571 | 41.66247 | 37972 ft | 385 kts | 275° |
| 2026-04-21 11:15 | 29.20162 | 41.60149 | 37976 ft | 385 kts | 275° |
| 2026-04-21 11:16 | 29.20747 | 41.54089 | 37979 ft | 385 kts | 275° |
| 2026-04-21 11:16 | 29.21333 | 41.47978 | 37981 ft | 385 kts | 275° |
| 2026-04-21 11:17 | 29.21916 | 41.41876 | 37987 ft | 385 kts | 275° |
| 2026-04-21 11:17 | 29.22497 | 41.35761 | 37988 ft | 386 kts | 275° |
| 2026-04-21 11:18 | 29.23074 | 41.29658 | 37991 ft | 385 kts | 275° |
| 2026-04-21 11:18 | 29.23645 | 41.23592 | 37998 ft | 385 kts | 275° |
| 2026-04-21 11:19 | 29.24218 | 41.17479 | 37998 ft | 385 kts | 274° |
| 2026-04-21 11:19 | 29.24787 | 41.11370 | 38003 ft | 385 kts | 274° |
| 2026-04-21 11:20 | 29.25349 | 41.05299 | 38003 ft | 385 kts | 274° |
| 2026-04-21 11:20 | 29.25913 | 40.99191 | 38007 ft | 385 kts | 274° |
| 2026-04-21 11:21 | 29.26474 | 40.93086 | 38005 ft | 385 kts | 274° |
| 2026-04-21 11:21 | 29.27031 | 40.86982 | 38008 ft | 385 kts | 274° |
| 2026-04-21 11:22 | 29.27586 | 40.80871 | 38013 ft | 385 kts | 274° |
| 2026-04-21 11:22 | 29.28135 | 40.74804 | 38010 ft | 385 kts | 274° |
| 2026-04-21 11:23 | 29.28684 | 40.68698 | 38016 ft | 385 kts | 274° |
| 2026-04-21 11:23 | 29.29230 | 40.62592 | 38020 ft | 385 kts | 274° |
| 2026-04-21 11:24 | 29.29774 | 40.56486 | 38022 ft | 384 kts | 274° |
| 2026-04-21 11:24 | 29.30311 | 40.50430 | 38028 ft | 384 kts | 274° |
| 2026-04-21 11:25 | 29.30848 | 40.44327 | 38029 ft | 384 kts | 274° |
| 2026-04-21 11:25 | 29.31381 | 40.38231 | 38029 ft | 384 kts | 274° |
| 2026-04-21 11:26 | 29.31913 | 40.32129 | 38029 ft | 384 kts | 274° |
| 2026-04-21 11:26 | 29.32439 | 40.26064 | 38034 ft | 384 kts | 274° |
| 2026-04-21 11:27 | 29.32966 | 40.19956 | 38037 ft | 384 kts | 274° |
| 2026-04-21 11:27 | 29.33489 | 40.13856 | 38037 ft | 384 kts | 274° |
| 2026-04-21 11:28 | 29.34005 | 40.07801 | 38034 ft | 384 kts | 274° |
| 2026-04-21 11:28 | 29.34523 | 40.01706 | 38034 ft | 384 kts | 274° |
| 2026-04-21 11:29 | 29.35037 | 39.95616 | 38035 ft | 384 kts | 274° |
| 2026-04-21 11:29 | 29.35548 | 39.89521 | 38034 ft | 384 kts | 274° |
| 2026-04-21 11:30 | 29.36054 | 39.83461 | 38035 ft | 384 kts | 274° |
| 2026-04-21 11:30 | 29.36560 | 39.77360 | 38038 ft | 384 kts | 274° |
| 2026-04-21 11:31 | 29.37063 | 39.71271 | 38038 ft | 384 kts | 274° |
| 2026-04-21 11:31 | 29.37563 | 39.65170 | 38040 ft | 384 kts | 274° |
| 2026-04-21 11:32 | 29.38057 | 39.59118 | 38042 ft | 384 kts | 274° |
| 2026-04-21 11:32 | 29.38553 | 39.53016 | 38041 ft | 384 kts | 274° |
| 2026-04-21 11:33 | 29.38962 | 39.47941 | 38037 ft | 384 kts | 274° |
| 2026-04-21 11:33 | 29.39451 | 39.41851 | 38043 ft | 384 kts | 274° |
| 2026-04-21 11:34 | 29.39938 | 39.35751 | 38042 ft | 383 kts | 274° |
| 2026-04-21 11:34 | 29.40419 | 39.29684 | 38046 ft | 383 kts | 274° |
| 2026-04-21 11:35 | 29.40900 | 39.23591 | 38042 ft | 383 kts | 274° |
| 2026-04-21 11:35 | 29.41379 | 39.17493 | 38043 ft | 383 kts | 274° |
| 2026-04-21 11:36 | 29.41854 | 39.11398 | 38045 ft | 383 kts | 274° |
| 2026-04-21 11:36 | 29.42323 | 39.05342 | 38046 ft | 383 kts | 274° |
| 2026-04-21 11:37 | 29.42793 | 38.99245 | 38040 ft | 383 kts | 274° |
| 2026-04-21 11:37 | 29.43260 | 38.93152 | 38029 ft | 383 kts | 274° |
| 2026-04-21 11:38 | 29.43725 | 38.87045 | 38035 ft | 383 kts | 274° |
| 2026-04-21 11:38 | 29.44186 | 38.80949 | 38036 ft | 383 kts | 274° |
| 2026-04-21 11:39 | 29.44642 | 38.74895 | 38032 ft | 383 kts | 274° |
| 2026-04-21 11:39 | 29.45098 | 38.68800 | 38033 ft | 383 kts | 274° |
| 2026-04-21 11:40 | 29.45551 | 38.62702 | 38031 ft | 383 kts | 274° |
| 2026-04-21 11:40 | 29.46002 | 38.56597 | 38026 ft | 383 kts | 274° |
| 2026-04-21 11:41 | 29.46450 | 38.50485 | 38027 ft | 384 kts | 274° |
| 2026-04-21 11:41 | 29.46891 | 38.44427 | 38018 ft | 384 kts | 274° |
| 2026-04-21 11:42 | 29.47334 | 38.38315 | 38022 ft | 384 kts | 274° |
| 2026-04-21 11:42 | 29.47774 | 38.32212 | 38011 ft | 384 kts | 274° |
| 2026-04-21 11:43 | 29.48211 | 38.26096 | 38016 ft | 384 kts | 274° |
| 2026-04-21 11:43 | 29.48642 | 38.20022 | 38011 ft | 384 kts | 274° |
| 2026-04-21 11:44 | 29.49073 | 38.13913 | 38025 ft | 384 kts | 274° |
| 2026-04-21 11:44 | 29.49503 | 38.07795 | 38017 ft | 384 kts | 274° |
| 2026-04-21 11:45 | 29.49928 | 38.01681 | 38018 ft | 384 kts | 274° |
| 2026-04-21 11:45 | 29.50350 | 37.95599 | 38010 ft | 384 kts | 274° |
| 2026-04-21 11:46 | 29.50770 | 37.89481 | 38016 ft | 384 kts | 274° |
| 2026-04-21 11:46 | 29.51187 | 37.83368 | 38003 ft | 384 kts | 274° |
| 2026-04-21 11:47 | 29.51600 | 37.77279 | 38003 ft | 384 kts | 274° |
| 2026-04-21 11:47 | 29.52012 | 37.71163 | 38000 ft | 384 kts | 274° |
| 2026-04-21 11:48 | 29.52422 | 37.65044 | 38007 ft | 384 kts | 274° |
| 2026-04-21 11:48 | 29.52829 | 37.58918 | 38009 ft | 384 kts | 273° |
| 2026-04-21 11:49 | 29.53230 | 37.52830 | 37994 ft | 384 kts | 273° |
| 2026-04-21 11:49 | 29.53631 | 37.46707 | 38002 ft | 384 kts | 273° |
| 2026-04-21 11:50 | 29.54029 | 37.40587 | 37994 ft | 384 kts | 273° |
| 2026-04-21 11:50 | 29.54426 | 37.34458 | 38000 ft | 384 kts | 273° |
| 2026-04-21 11:51 | 29.54817 | 37.28363 | 37986 ft | 385 kts | 273° |
| 2026-04-21 11:51 | 29.55207 | 37.22231 | 37987 ft | 385 kts | 273° |
| 2026-04-21 11:52 | 29.55594 | 37.16101 | 37995 ft | 384 kts | 273° |
| 2026-04-21 11:52 | 29.55979 | 37.09973 | 37995 ft | 384 kts | 273° |
| 2026-04-21 11:53 | 29.56360 | 37.03856 | 37992 ft | 384 kts | 273° |
| 2026-04-21 11:53 | 29.56737 | 36.97736 | 38001 ft | 384 kts | 273° |
| 2026-04-21 11:54 | 29.57110 | 36.91656 | 37988 ft | 384 kts | 273° |
| 2026-04-21 11:54 | 29.57483 | 36.85531 | 37987 ft | 384 kts | 273° |
| 2026-04-21 11:55 | 29.57853 | 36.79413 | 37988 ft | 384 kts | 273° |
| 2026-04-21 11:55 | 29.58220 | 36.73289 | 37984 ft | 384 kts | 273° |
| 2026-04-21 11:56 | 29.58583 | 36.67205 | 37983 ft | 384 kts | 273° |
| 2026-04-21 11:56 | 29.58944 | 36.61080 | 37985 ft | 383 kts | 273° |
| 2026-04-21 11:57 | 29.59302 | 36.54963 | 37986 ft | 383 kts | 273° |
| 2026-04-21 11:57 | 29.59657 | 36.48850 | 37988 ft | 383 kts | 273° |
| 2026-04-21 11:58 | 29.60009 | 36.42740 | 37982 ft | 383 kts | 273° |
| 2026-04-21 11:58 | 29.60360 | 36.36608 | 37980 ft | 383 kts | 273° |
| 2026-04-21 11:59 | 29.60704 | 36.30534 | 37982 ft | 383 kts | 273° |
| 2026-04-21 11:59 | 29.61048 | 36.24415 | 37979 ft | 383 kts | 273° |
| 2026-04-21 12:00 | 29.61389 | 36.18302 | 37975 ft | 383 kts | 273° |
| 2026-04-21 12:00 | 29.61728 | 36.12177 | 37980 ft | 383 kts | 273° |
| 2026-04-21 12:01 | 29.62064 | 36.06063 | 37979 ft | 383 kts | 273° |
| 2026-04-21 12:01 | 29.62395 | 35.99969 | 37981 ft | 384 kts | 272° |
| 2026-04-21 12:02 | 29.62890 | 35.90790 | 37982 ft | 384 kts | 272° |
| 2026-04-21 12:03 | 29.63217 | 35.84648 | 37982 ft | 384 kts | 272° |
| 2026-04-21 12:03 | 29.63541 | 35.78508 | 37986 ft | 385 kts | 272° |
| 2026-04-21 12:04 | 29.63862 | 35.72373 | 37990 ft | 385 kts | 272° |
| 2026-04-21 12:04 | 29.64178 | 35.66268 | 37986 ft | 385 kts | 272° |
| 2026-04-21 12:05 | 29.64495 | 35.60126 | 37986 ft | 384 kts | 272° |
| 2026-04-21 12:05 | 29.64808 | 35.53978 | 38000 ft | 385 kts | 272° |
| 2026-04-21 12:06 | 29.65118 | 35.47814 | 37997 ft | 385 kts | 272° |
| 2026-04-21 12:06 | 29.65424 | 35.41706 | 37992 ft | 386 kts | 272° |
| 2026-04-21 12:07 | 29.65729 | 35.35543 | 37993 ft | 386 kts | 272° |
| 2026-04-21 12:07 | 29.66032 | 35.29374 | 37999 ft | 385 kts | 272° |
| 2026-04-21 12:08 | 29.66331 | 35.23223 | 38000 ft | 385 kts | 272° |
| 2026-04-21 12:08 | 29.66626 | 35.17104 | 37993 ft | 385 kts | 272° |
| 2026-04-21 12:09 | 29.66920 | 35.10928 | 38001 ft | 388 kts | 272° |
| 2026-04-21 12:09 | 29.67211 | 35.04739 | 37965 ft | 386 kts | 272° |
| 2026-04-21 12:10 | 29.67497 | 34.98608 | 37966 ft | 386 kts | 272° |
| 2026-04-21 12:10 | 29.67785 | 34.92440 | 37970 ft | 387 kts | 272° |
| 2026-04-21 12:11 | 29.68069 | 34.86251 | 37971 ft | 386 kts | 272° |
| 2026-04-21 12:11 | 29.68345 | 34.80123 | 37978 ft | 386 kts | 272° |
| 2026-04-21 12:12 | 29.68621 | 34.73955 | 37984 ft | 386 kts | 272° |
| 2026-04-21 12:12 | 29.68896 | 34.67784 | 37992 ft | 386 kts | 272° |
| 2026-04-21 12:13 | 29.69166 | 34.61646 | 37999 ft | 386 kts | 272° |
| 2026-04-21 12:13 | 29.69434 | 34.55476 | 38005 ft | 386 kts | 272° |
| 2026-04-21 12:14 | 29.69701 | 34.49293 | 38004 ft | 386 kts | 272° |
| 2026-04-21 12:14 | 29.69964 | 34.43114 | 38005 ft | 386 kts | 272° |
| 2026-04-21 12:15 | 29.70222 | 34.36980 | 38007 ft | 386 kts | 272° |
| 2026-04-21 12:15 | 29.70479 | 34.30808 | 38008 ft | 386 kts | 272° |
| 2026-04-21 12:16 | 29.70733 | 34.24631 | 38008 ft | 386 kts | 272° |
| 2026-04-21 12:16 | 29.70985 | 34.18450 | 38011 ft | 387 kts | 272° |
| 2026-04-21 12:17 | 29.71234 | 34.12266 | 38008 ft | 387 kts | 271° |
| 2026-04-21 12:17 | 29.71479 | 34.06084 | 38012 ft | 387 kts | 271° |
| 2026-04-21 12:18 | 29.71721 | 33.99942 | 38009 ft | 387 kts | 271° |
| 2026-04-21 12:18 | 29.71961 | 33.93753 | 38009 ft | 387 kts | 271° |
| 2026-04-21 12:19 | 29.72198 | 33.87572 | 38010 ft | 387 kts | 271° |
| 2026-04-21 12:19 | 29.72433 | 33.81390 | 38009 ft | 387 kts | 271° |
| 2026-04-21 12:20 | 29.72665 | 33.75201 | 38008 ft | 387 kts | 271° |
| 2026-04-21 12:20 | 29.72892 | 33.69052 | 38010 ft | 387 kts | 271° |
| 2026-04-21 12:21 | 29.73118 | 33.62874 | 38007 ft | 387 kts | 271° |
| 2026-04-21 12:21 | 29.73341 | 33.56677 | 38007 ft | 387 kts | 271° |
| 2026-04-21 12:22 | 29.73561 | 33.50487 | 38007 ft | 387 kts | 271° |
| 2026-04-21 12:22 | 29.73742 | 33.45326 | 38010 ft | 387 kts | 271° |
| 2026-04-21 12:23 | 29.73993 | 33.38120 | 38007 ft | 387 kts | 271° |
| 2026-04-21 12:23 | 29.74169 | 33.32965 | 38006 ft | 387 kts | 271° |
| 2026-04-21 12:24 | 29.74379 | 33.26762 | 38009 ft | 388 kts | 271° |
| 2026-04-21 12:24 | 29.74585 | 33.20558 | 38011 ft | 388 kts | 271° |
| 2026-04-21 12:25 | 29.74790 | 33.14335 | 38009 ft | 388 kts | 271° |
| 2026-04-21 12:25 | 29.74989 | 33.08163 | 38009 ft | 388 kts | 271° |
| 2026-04-21 12:26 | 29.75187 | 33.01964 | 38014 ft | 388 kts | 271° |
| 2026-04-21 12:26 | 29.75383 | 32.95751 | 38010 ft | 388 kts | 271° |
| 2026-04-21 12:27 | 29.75577 | 32.89536 | 38013 ft | 388 kts | 271° |
| 2026-04-21 12:27 | 29.75765 | 32.83350 | 38020 ft | 388 kts | 271° |
| 2026-04-21 12:28 | 29.75951 | 32.77133 | 38020 ft | 388 kts | 271° |
| 2026-04-21 12:28 | 29.76134 | 32.70918 | 38018 ft | 388 kts | 271° |
| 2026-04-21 12:29 | 29.76315 | 32.64703 | 38017 ft | 388 kts | 271° |
| 2026-04-21 12:29 | 29.76494 | 32.58478 | 38022 ft | 389 kts | 271° |
| 2026-04-21 12:30 | 29.76668 | 32.52302 | 38024 ft | 389 kts | 271° |
| 2026-04-21 12:30 | 29.76840 | 32.46080 | 38026 ft | 389 kts | 271° |
| 2026-04-21 12:31 | 29.77010 | 32.39851 | 38024 ft | 389 kts | 271° |
| 2026-04-21 12:31 | 29.77176 | 32.33627 | 38028 ft | 389 kts | 271° |
| 2026-04-21 12:32 | 29.77340 | 32.27405 | 38028 ft | 389 kts | 270° |
| 2026-04-21 12:32 | 29.77500 | 32.21224 | 38030 ft | 389 kts | 270° |
| 2026-04-21 12:33 | 29.77658 | 32.15000 | 38032 ft | 389 kts | 270° |
| 2026-04-21 12:33 | 29.77813 | 32.08774 | 38036 ft | 389 kts | 270° |
| 2026-04-21 12:34 | 29.77965 | 32.02549 | 38039 ft | 389 kts | 270° |
| 2026-04-21 12:34 | 29.78114 | 31.96310 | 38040 ft | 389 kts | 270° |
| 2026-04-21 12:35 | 29.78628 | 31.90136 | 38041 ft | 392 kts | 279° |
| 2026-04-21 12:35 | 29.80412 | 31.84168 | 38044 ft | 399 kts | 291° |
| 2026-04-21 12:36 | 29.83457 | 31.78728 | 38044 ft | 407 kts | 299° |
| 2026-04-21 12:36 | 29.86838 | 31.73478 | 38048 ft | 409 kts | 300° |
| 2026-04-21 12:37 | 29.90253 | 31.68232 | 38044 ft | 409 kts | 300° |
| 2026-04-21 12:37 | 29.93661 | 31.62963 | 38043 ft | 409 kts | 300° |
| 2026-04-21 12:38 | 29.97053 | 31.57730 | 38027 ft | 410 kts | 300° |
| 2026-04-21 12:38 | 30.00466 | 31.52452 | 38024 ft | 410 kts | 300° |
| 2026-04-21 12:39 | 30.03861 | 31.47191 | 38023 ft | 410 kts | 300° |
| 2026-04-21 12:39 | 30.07269 | 31.41902 | 38012 ft | 410 kts | 300° |
| 2026-04-21 12:40 | 30.11079 | 31.36907 | 38015 ft | 419 kts | 308° |
| 2026-04-21 12:40 | 30.15332 | 31.32246 | 38022 ft | 421 kts | 309° |
| 2026-04-21 12:41 | 30.19645 | 31.27642 | 38024 ft | 422 kts | 309° |
| 2026-04-21 12:41 | 30.23939 | 31.23055 | 38024 ft | 422 kts | 309° |
| 2026-04-21 12:42 | 30.28243 | 31.18431 | 38026 ft | 422 kts | 309° |
| 2026-04-21 12:42 | 30.32545 | 31.13794 | 38038 ft | 422 kts | 309° |
| 2026-04-21 12:43 | 30.36819 | 31.09180 | 38035 ft | 423 kts | 309° |
| 2026-04-21 12:43 | 30.41129 | 31.04521 | 38036 ft | 423 kts | 309° |
| 2026-04-21 12:44 | 30.45441 | 30.99856 | 38034 ft | 423 kts | 309° |
| 2026-04-21 12:44 | 30.49749 | 30.95190 | 38031 ft | 424 kts | 309° |
| 2026-04-21 12:45 | 30.54030 | 30.90546 | 38034 ft | 424 kts | 309° |
| 2026-04-21 12:45 | 30.58346 | 30.85859 | 38042 ft | 424 kts | 309° |
| 2026-04-21 12:46 | 30.62664 | 30.81163 | 38044 ft | 425 kts | 309° |
| 2026-04-21 12:46 | 30.66954 | 30.76492 | 38039 ft | 425 kts | 309° |
| 2026-04-21 12:47 | 30.71276 | 30.71780 | 38038 ft | 425 kts | 309° |
| 2026-04-21 12:47 | 30.75599 | 30.67061 | 38038 ft | 426 kts | 309° |
| 2026-04-21 12:48 | 30.79889 | 30.62372 | 38038 ft | 426 kts | 309° |
| 2026-04-21 12:48 | 30.84224 | 30.57628 | 38039 ft | 426 kts | 309° |
| 2026-04-21 12:49 | 30.88545 | 30.52893 | 38040 ft | 426 kts | 309° |
| 2026-04-21 12:49 | 30.92842 | 30.48178 | 38045 ft | 427 kts | 309° |
| 2026-04-21 12:50 | 30.97172 | 30.43420 | 38042 ft | 427 kts | 309° |
| 2026-04-21 12:50 | 31.01495 | 30.38664 | 38045 ft | 427 kts | 309° |
| 2026-04-21 12:51 | 31.05783 | 30.33871 | 38049 ft | 425 kts | 306° |
| 2026-04-21 12:51 | 31.09238 | 30.28425 | 38051 ft | 414 kts | 294° |
| 2026-04-21 12:52 | 31.11406 | 30.22275 | 38051 ft | 409 kts | 285° |
| 2026-04-21 12:52 | 31.13148 | 30.15958 | 38051 ft | 409 kts | 284° |
| 2026-04-21 12:53 | 31.14826 | 30.09648 | 38051 ft | 409 kts | 284° |
| 2026-04-21 12:53 | 31.16528 | 30.03305 | 38048 ft | 410 kts | 284° |
| 2026-04-21 12:54 | 31.18354 | 29.96989 | 38050 ft | 412 kts | 289° |
| 2026-04-21 12:54 | 31.21229 | 29.91129 | 38051 ft | 419 kts | 299° |
| 2026-04-21 12:55 | 31.24632 | 29.85568 | 38050 ft | 421 kts | 301° |
| 2026-04-21 12:55 | 31.28092 | 29.80090 | 38053 ft | 421 kts | 301° |
| 2026-04-21 12:56 | 31.31573 | 29.74552 | 38057 ft | 421 kts | 301° |
| 2026-04-21 12:56 | 31.35025 | 29.69018 | 38055 ft | 421 kts | 301° |
| 2026-04-21 12:57 | 31.38454 | 29.63497 | 38061 ft | 421 kts | 301° |
| 2026-04-21 12:57 | 31.41905 | 29.57933 | 38049 ft | 422 kts | 301° |
| 2026-04-21 12:58 | 31.45354 | 29.52365 | 38064 ft | 422 kts | 301° |
| 2026-04-21 12:58 | 31.48801 | 29.46795 | 38071 ft | 422 kts | 301° |
| 2026-04-21 12:59 | 31.52220 | 29.41261 | 38065 ft | 422 kts | 301° |
| 2026-04-21 12:59 | 31.55666 | 29.35676 | 38063 ft | 422 kts | 301° |
| 2026-04-21 13:00 | 31.59104 | 29.30096 | 38055 ft | 422 kts | 301° |
| 2026-04-21 13:00 | 31.62541 | 29.24500 | 38061 ft | 422 kts | 301° |
| 2026-04-21 13:01 | 31.65970 | 29.18897 | 38068 ft | 422 kts | 301° |
| 2026-04-21 13:01 | 31.69401 | 29.13284 | 38066 ft | 423 kts | 301° |
| 2026-04-21 13:02 | 31.72813 | 29.07697 | 38061 ft | 423 kts | 301° |
| 2026-04-21 13:02 | 31.77965 | 28.99243 | 38060 ft | 424 kts | 301° |
| 2026-04-21 13:03 | 31.81390 | 28.93598 | 38057 ft | 424 kts | 301° |
| 2026-04-21 13:03 | 31.84811 | 28.87953 | 38059 ft | 424 kts | 301° |
| 2026-04-21 13:04 | 31.88213 | 28.82336 | 38060 ft | 424 kts | 301° |
| 2026-04-21 13:04 | 31.91633 | 28.76681 | 38056 ft | 424 kts | 301° |
| 2026-04-21 13:05 | 31.95059 | 28.71007 | 38051 ft | 424 kts | 301° |
| 2026-04-21 13:05 | 31.98478 | 28.65338 | 38061 ft | 425 kts | 301° |
| 2026-04-21 13:06 | 32.01899 | 28.59655 | 38062 ft | 425 kts | 301° |
| 2026-04-21 13:06 | 32.05323 | 28.53959 | 38061 ft | 425 kts | 301° |
| 2026-04-21 13:07 | 32.08720 | 28.48301 | 38059 ft | 425 kts | 301° |
| 2026-04-21 13:07 | 32.12141 | 28.42595 | 38061 ft | 425 kts | 301° |
| 2026-04-21 13:08 | 32.15560 | 28.36882 | 38059 ft | 426 kts | 301° |
| 2026-04-21 13:08 | 32.18978 | 28.31162 | 38062 ft | 426 kts | 301° |
| 2026-04-21 13:09 | 32.22392 | 28.25440 | 38061 ft | 426 kts | 301° |
| 2026-04-21 13:09 | 32.25783 | 28.19748 | 38057 ft | 426 kts | 301° |
| 2026-04-21 13:10 | 32.29193 | 28.14017 | 38059 ft | 426 kts | 301° |
| 2026-04-21 13:10 | 32.32611 | 28.08263 | 38058 ft | 427 kts | 301° |
| 2026-04-21 13:11 | 32.36005 | 28.02541 | 38060 ft | 427 kts | 301° |
| 2026-04-21 13:11 | 32.39410 | 27.96791 | 38061 ft | 427 kts | 301° |
| 2026-04-21 13:12 | 32.42815 | 27.91032 | 38055 ft | 427 kts | 301° |
| 2026-04-21 13:12 | 32.46220 | 27.85265 | 38059 ft | 427 kts | 301° |
| 2026-04-21 13:13 | 32.49050 | 27.80466 | 38060 ft | 427 kts | 301° |
| 2026-04-21 13:13 | 32.52454 | 27.74685 | 38063 ft | 427 kts | 301° |
| 2026-04-21 13:14 | 32.55859 | 27.68892 | 38067 ft | 428 kts | 301° |
| 2026-04-21 13:14 | 32.59256 | 27.63104 | 38049 ft | 428 kts | 301° |
| 2026-04-21 13:15 | 32.62653 | 27.57308 | 38068 ft | 428 kts | 301° |
| 2026-04-21 13:15 | 32.66029 | 27.51538 | 38053 ft | 428 kts | 301° |
| 2026-04-21 13:16 | 32.69426 | 27.45723 | 38051 ft | 428 kts | 301° |
| 2026-04-21 13:16 | 32.72824 | 27.39898 | 38055 ft | 428 kts | 301° |
| 2026-04-21 13:17 | 32.76219 | 27.34070 | 38059 ft | 428 kts | 301° |
| 2026-04-21 13:17 | 32.79585 | 27.28282 | 38058 ft | 428 kts | 301° |
| 2026-04-21 13:18 | 32.82975 | 27.22443 | 38060 ft | 428 kts | 301° |
| 2026-04-21 13:18 | 32.86363 | 27.16598 | 38058 ft | 428 kts | 301° |
| 2026-04-21 13:19 | 32.89728 | 27.10785 | 38058 ft | 429 kts | 301° |
| 2026-04-21 13:19 | 32.93106 | 27.04940 | 38061 ft | 429 kts | 301° |
| 2026-04-21 13:20 | 32.96489 | 26.99077 | 38055 ft | 429 kts | 301° |
| 2026-04-21 13:20 | 32.99865 | 26.93216 | 38055 ft | 429 kts | 301° |
| 2026-04-21 13:21 | 33.03238 | 26.87353 | 38057 ft | 429 kts | 301° |
| 2026-04-21 13:21 | 33.06588 | 26.81518 | 38054 ft | 429 kts | 301° |
| 2026-04-21 13:22 | 33.09955 | 26.75646 | 38055 ft | 429 kts | 301° |
| 2026-04-21 13:22 | 33.13322 | 26.69765 | 38055 ft | 429 kts | 301° |
| 2026-04-21 13:23 | 33.16668 | 26.63910 | 38054 ft | 429 kts | 301° |
| 2026-04-21 13:23 | 33.20027 | 26.58023 | 38054 ft | 429 kts | 301° |
| 2026-04-21 13:24 | 33.23382 | 26.52135 | 38056 ft | 429 kts | 301° |
| 2026-04-21 13:24 | 33.26736 | 26.46240 | 38055 ft | 429 kts | 301° |
| 2026-04-21 13:25 | 33.30085 | 26.40342 | 38054 ft | 429 kts | 301° |
| 2026-04-21 13:25 | 33.33411 | 26.34476 | 38051 ft | 428 kts | 301° |
| 2026-04-21 13:26 | 33.36757 | 26.28566 | 38056 ft | 428 kts | 301° |
| 2026-04-21 13:26 | 33.40097 | 26.22656 | 38053 ft | 428 kts | 301° |
| 2026-04-21 13:27 | 33.43436 | 26.16740 | 38052 ft | 428 kts | 301° |
| 2026-04-21 13:27 | 33.46770 | 26.10821 | 38049 ft | 428 kts | 301° |
| 2026-04-21 13:28 | 33.50079 | 26.04939 | 38054 ft | 428 kts | 301° |
| 2026-04-21 13:28 | 33.53404 | 25.99019 | 38051 ft | 428 kts | 301° |
| 2026-04-21 13:29 | 33.56732 | 25.93083 | 38048 ft | 428 kts | 301° |
| 2026-04-21 13:29 | 33.60058 | 25.87140 | 38049 ft | 428 kts | 301° |
| 2026-04-21 13:30 | 33.63356 | 25.81240 | 38052 ft | 428 kts | 301° |
| 2026-04-21 13:30 | 33.66672 | 25.75297 | 38050 ft | 428 kts | 301° |
| 2026-04-21 13:31 | 33.69984 | 25.69350 | 38050 ft | 428 kts | 301° |
| 2026-04-21 13:31 | 33.73282 | 25.63420 | 38045 ft | 428 kts | 301° |
| 2026-04-21 13:32 | 33.76586 | 25.57470 | 38046 ft | 428 kts | 301° |
| 2026-04-21 13:32 | 33.79889 | 25.51511 | 38047 ft | 428 kts | 301° |
| 2026-04-21 13:33 | 33.83187 | 25.45551 | 38047 ft | 428 kts | 300° |
| 2026-04-21 13:33 | 33.86467 | 25.39614 | 38046 ft | 428 kts | 300° |
| 2026-04-21 13:34 | 33.89761 | 25.33642 | 38044 ft | 428 kts | 300° |
| 2026-04-21 13:34 | 33.93056 | 25.27660 | 38048 ft | 428 kts | 300° |
| 2026-04-21 13:35 | 33.96347 | 25.21674 | 38044 ft | 428 kts | 300° |
| 2026-04-21 13:35 | 33.99511 | 25.15627 | 38045 ft | 427 kts | 295° |
| 2026-04-21 13:36 | 34.01813 | 25.09074 | 38043 ft | 424 kts | 289° |
| 2026-04-21 13:36 | 34.03850 | 25.02380 | 38042 ft | 425 kts | 288° |
| 2026-04-21 13:37 | 34.05836 | 24.95677 | 38041 ft | 425 kts | 288° |
| 2026-04-21 13:37 | 34.07830 | 24.88964 | 38044 ft | 425 kts | 288° |
| 2026-04-21 13:38 | 34.09819 | 24.82297 | 38039 ft | 425 kts | 288° |
| 2026-04-21 13:38 | 34.11819 | 24.75591 | 38043 ft | 425 kts | 288° |
| 2026-04-21 13:39 | 34.13816 | 24.68876 | 38044 ft | 425 kts | 288° |
| 2026-04-21 13:39 | 34.15811 | 24.62155 | 38047 ft | 425 kts | 288° |
| 2026-04-21 13:40 | 34.17800 | 24.55434 | 38045 ft | 425 kts | 288° |
| 2026-04-21 13:40 | 34.19787 | 24.48707 | 38045 ft | 425 kts | 288° |
| 2026-04-21 13:41 | 34.21769 | 24.41983 | 38045 ft | 425 kts | 288° |
| 2026-04-21 13:41 | 34.23748 | 24.35248 | 38047 ft | 424 kts | 288° |
| 2026-04-21 13:42 | 34.25707 | 24.28569 | 38050 ft | 424 kts | 288° |
| 2026-04-21 13:42 | 34.27677 | 24.21837 | 38045 ft | 424 kts | 288° |
| 2026-04-21 13:43 | 34.29643 | 24.15103 | 38047 ft | 424 kts | 288° |
| 2026-04-21 13:43 | 34.31605 | 24.08365 | 38046 ft | 424 kts | 288° |
| 2026-04-21 13:44 | 34.33565 | 24.01621 | 38046 ft | 424 kts | 288° |
| 2026-04-21 13:44 | 34.35520 | 23.94877 | 38044 ft | 424 kts | 288° |
| 2026-04-21 13:45 | 34.37470 | 23.88133 | 38046 ft | 424 kts | 288° |
| 2026-04-21 13:45 | 34.39406 | 23.81423 | 38049 ft | 425 kts | 288° |
| 2026-04-21 13:46 | 34.41354 | 23.74654 | 38048 ft | 425 kts | 288° |
| 2026-04-21 13:46 | 34.43300 | 23.67877 | 38048 ft | 426 kts | 288° |
| 2026-04-21 13:47 | 34.45232 | 23.61134 | 38047 ft | 426 kts | 288° |
| 2026-04-21 13:47 | 34.47172 | 23.54345 | 38048 ft | 426 kts | 288° |
| 2026-04-21 13:48 | 34.49108 | 23.47554 | 38048 ft | 426 kts | 288° |
| 2026-04-21 13:48 | 34.51042 | 23.40756 | 38050 ft | 426 kts | 288° |
| 2026-04-21 13:49 | 34.52970 | 23.33959 | 38050 ft | 426 kts | 288° |
| 2026-04-21 13:49 | 34.54882 | 23.27204 | 38051 ft | 426 kts | 288° |
| 2026-04-21 13:50 | 34.56802 | 23.20405 | 38054 ft | 426 kts | 288° |
| 2026-04-21 13:50 | 34.58714 | 23.13618 | 38055 ft | 422 kts | 288° |
| 2026-04-21 13:51 | 34.60601 | 23.06901 | 38054 ft | 419 kts | 288° |
| 2026-04-21 13:51 | 34.62473 | 23.00223 | 38053 ft | 419 kts | 288° |
| 2026-04-21 13:52 | 34.64275 | 22.93488 | 38051 ft | 419 kts | 286° |
| 2026-04-21 13:52 | 34.65980 | 22.86699 | 38052 ft | 419 kts | 286° |
| 2026-04-21 13:53 | 34.67684 | 22.79921 | 38050 ft | 419 kts | 286° |
| 2026-04-21 13:53 | 34.69393 | 22.73186 | 38051 ft | 419 kts | 286° |
| 2026-04-21 13:54 | 34.71119 | 22.66399 | 38051 ft | 420 kts | 286° |
| 2026-04-21 13:54 | 34.72840 | 22.59618 | 38048 ft | 420 kts | 286° |
| 2026-04-21 13:55 | 34.74559 | 22.52824 | 38051 ft | 420 kts | 286° |
| 2026-04-21 13:55 | 34.76275 | 22.46024 | 38053 ft | 420 kts | 286° |
| 2026-04-21 13:56 | 34.77976 | 22.39262 | 38050 ft | 420 kts | 286° |
| 2026-04-21 13:56 | 34.79684 | 22.32455 | 38052 ft | 421 kts | 286° |
| 2026-04-21 13:57 | 34.81390 | 22.25636 | 38050 ft | 421 kts | 286° |
| 2026-04-21 13:57 | 34.83092 | 22.18819 | 38049 ft | 421 kts | 286° |
| 2026-04-21 13:58 | 34.84791 | 22.11994 | 38051 ft | 421 kts | 286° |
| 2026-04-21 13:58 | 34.86485 | 22.05170 | 38048 ft | 421 kts | 286° |
| 2026-04-21 13:59 | 34.88168 | 21.98377 | 38047 ft | 421 kts | 286° |
| 2026-04-21 13:59 | 34.89856 | 21.91541 | 38047 ft | 421 kts | 286° |
| 2026-04-21 14:00 | 34.91541 | 21.84701 | 38050 ft | 421 kts | 286° |
| 2026-04-21 14:00 | 34.93222 | 21.77857 | 38051 ft | 421 kts | 286° |
| 2026-04-21 14:01 | 34.94901 | 21.71004 | 38053 ft | 421 kts | 286° |
| 2026-04-21 14:01 | 34.96568 | 21.64181 | 38047 ft | 422 kts | 286° |
| 2026-04-21 14:02 | 34.98241 | 21.57316 | 38046 ft | 422 kts | 286° |
| 2026-04-21 14:03 | 35.00465 | 21.48158 | 38049 ft | 422 kts | 286° |
| 2026-04-21 14:03 | 35.02401 | 21.40160 | 38049 ft | 423 kts | 286° |
| 2026-04-21 14:04 | 35.03795 | 21.34386 | 38048 ft | 423 kts | 285° |
| 2026-04-21 14:04 | 35.05446 | 21.27530 | 38047 ft | 423 kts | 285° |
| 2026-04-21 14:05 | 35.07100 | 21.20642 | 38043 ft | 423 kts | 285° |
| 2026-04-21 14:05 | 35.08753 | 21.13739 | 38046 ft | 423 kts | 285° |
| 2026-04-21 14:06 | 35.10400 | 21.06841 | 38046 ft | 423 kts | 285° |
| 2026-04-21 14:06 | 35.12036 | 20.99971 | 38044 ft | 423 kts | 285° |
| 2026-04-21 14:07 | 35.13676 | 20.93067 | 38043 ft | 423 kts | 285° |
| 2026-04-21 14:07 | 35.15312 | 20.86159 | 38045 ft | 423 kts | 285° |
| 2026-04-21 14:08 | 35.16945 | 20.79245 | 38038 ft | 423 kts | 285° |
| 2026-04-21 14:08 | 35.18574 | 20.72325 | 38039 ft | 423 kts | 285° |
| 2026-04-21 14:09 | 35.20189 | 20.65447 | 38044 ft | 423 kts | 285° |
| 2026-04-21 14:09 | 35.21822 | 20.58478 | 38042 ft | 424 kts | 285° |
| 2026-04-21 14:10 | 35.23429 | 20.51594 | 38039 ft | 424 kts | 285° |
| 2026-04-21 14:10 | 35.25045 | 20.44655 | 38041 ft | 424 kts | 285° |
| 2026-04-21 14:11 | 35.26658 | 20.37707 | 38037 ft | 424 kts | 285° |
| 2026-04-21 14:11 | 35.28266 | 20.30760 | 38038 ft | 424 kts | 285° |
| 2026-04-21 14:12 | 35.29859 | 20.23862 | 38036 ft | 424 kts | 285° |
| 2026-04-21 14:12 | 35.31459 | 20.16913 | 38039 ft | 424 kts | 285° |
| 2026-04-21 14:13 | 35.33054 | 20.09964 | 38036 ft | 424 kts | 285° |
| 2026-04-21 14:13 | 35.34647 | 20.03001 | 38033 ft | 424 kts | 285° |
| 2026-04-21 14:14 | 35.36236 | 19.96037 | 38031 ft | 424 kts | 285° |
| 2026-04-21 14:14 | 35.37821 | 19.89075 | 38031 ft | 424 kts | 285° |
| 2026-04-21 14:15 | 35.39402 | 19.82104 | 38030 ft | 424 kts | 285° |
| 2026-04-21 14:15 | 35.40970 | 19.75175 | 38034 ft | 424 kts | 285° |
| 2026-04-21 14:16 | 35.42543 | 19.68201 | 38031 ft | 424 kts | 285° |
| 2026-04-21 14:16 | 35.44113 | 19.61217 | 38028 ft | 424 kts | 285° |
| 2026-04-21 14:17 | 35.45677 | 19.54246 | 38034 ft | 424 kts | 285° |
| 2026-04-21 14:17 | 35.47227 | 19.47310 | 38029 ft | 424 kts | 285° |
| 2026-04-21 14:18 | 35.48785 | 19.40321 | 38028 ft | 424 kts | 285° |
| 2026-04-21 14:18 | 35.50336 | 19.33341 | 38027 ft | 424 kts | 285° |
| 2026-04-21 14:19 | 35.51884 | 19.26358 | 38029 ft | 424 kts | 285° |
| 2026-04-21 14:19 | 35.53427 | 19.19373 | 38022 ft | 424 kts | 285° |
| 2026-04-21 14:20 | 35.54968 | 19.12379 | 38023 ft | 424 kts | 285° |
| 2026-04-21 14:20 | 35.56491 | 19.05442 | 38025 ft | 423 kts | 285° |
| 2026-04-21 14:21 | 35.58024 | 18.98439 | 38023 ft | 423 kts | 285° |
| 2026-04-21 14:21 | 35.59550 | 18.91448 | 38019 ft | 423 kts | 285° |
| 2026-04-21 14:22 | 35.61072 | 18.84456 | 38021 ft | 423 kts | 285° |
| 2026-04-21 14:22 | 35.62588 | 18.77467 | 38017 ft | 423 kts | 285° |
| 2026-04-21 14:23 | 35.64091 | 18.70520 | 38015 ft | 423 kts | 285° |
| 2026-04-21 14:23 | 35.65598 | 18.63531 | 38015 ft | 423 kts | 284° |
| 2026-04-21 14:24 | 35.67102 | 18.56537 | 38017 ft | 423 kts | 284° |
| 2026-04-21 14:24 | 35.68602 | 18.49538 | 38014 ft | 422 kts | 284° |
| 2026-04-21 14:25 | 35.70096 | 18.42544 | 38008 ft | 422 kts | 284° |
| 2026-04-21 14:25 | 35.71577 | 18.35593 | 38009 ft | 422 kts | 284° |
| 2026-04-21 14:26 | 35.73061 | 18.28605 | 38010 ft | 422 kts | 284° |
| 2026-04-21 14:26 | 35.74541 | 18.21616 | 38010 ft | 422 kts | 284° |
| 2026-04-21 14:27 | 35.76021 | 18.14601 | 38005 ft | 422 kts | 284° |
| 2026-04-21 14:27 | 35.77494 | 18.07601 | 38005 ft | 422 kts | 284° |
| 2026-04-21 14:28 | 35.78951 | 18.00651 | 38005 ft | 421 kts | 284° |
| 2026-04-21 14:28 | 35.80413 | 17.93660 | 38004 ft | 421 kts | 284° |
| 2026-04-21 14:29 | 35.81870 | 17.86668 | 38002 ft | 421 kts | 284° |
| 2026-04-21 14:29 | 35.83323 | 17.79673 | 37998 ft | 421 kts | 284° |
| 2026-04-21 14:30 | 35.84765 | 17.72713 | 38001 ft | 421 kts | 284° |
| 2026-04-21 14:30 | 35.86208 | 17.65723 | 37996 ft | 421 kts | 284° |
| 2026-04-21 14:31 | 35.87648 | 17.58726 | 37998 ft | 420 kts | 284° |
| 2026-04-21 14:31 | 35.89085 | 17.51720 | 37998 ft | 420 kts | 284° |
| 2026-04-21 14:32 | 35.90516 | 17.44722 | 37993 ft | 420 kts | 284° |
| 2026-04-21 14:32 | 35.91934 | 17.37769 | 37990 ft | 420 kts | 284° |
| 2026-04-21 14:33 | 35.93358 | 17.30760 | 37987 ft | 420 kts | 284° |
| 2026-04-21 14:33 | 35.94774 | 17.23766 | 37987 ft | 420 kts | 284° |
| 2026-04-21 14:34 | 35.96189 | 17.16760 | 37988 ft | 420 kts | 284° |
| 2026-04-21 14:34 | 35.97590 | 17.09796 | 37984 ft | 420 kts | 284° |
| 2026-04-21 14:35 | 35.98997 | 17.02784 | 37982 ft | 420 kts | 284° |
| 2026-04-21 14:35 | 36.00398 | 16.95772 | 37983 ft | 420 kts | 284° |
| 2026-04-21 14:36 | 36.01796 | 16.88760 | 37979 ft | 420 kts | 284° |
| 2026-04-21 14:36 | 36.03179 | 16.81795 | 37980 ft | 420 kts | 284° |
| 2026-04-21 14:37 | 36.04569 | 16.74775 | 37977 ft | 420 kts | 283° |
| 2026-04-21 14:37 | 36.05952 | 16.67765 | 37977 ft | 420 kts | 283° |
| 2026-04-21 14:38 | 36.07334 | 16.60738 | 37975 ft | 420 kts | 283° |
| 2026-04-21 14:38 | 36.08718 | 16.53678 | 37965 ft | 427 kts | 283° |
| 2026-04-21 14:39 | 36.10121 | 16.46495 | 37971 ft | 437 kts | 283° |
| 2026-04-21 14:39 | 36.11545 | 16.39181 | 37971 ft | 437 kts | 283° |
| 2026-04-21 14:40 | 36.12963 | 16.31874 | 37968 ft | 436 kts | 283° |
| 2026-04-21 14:40 | 36.14375 | 16.24573 | 37960 ft | 436 kts | 283° |
| 2026-04-21 14:41 | 36.15783 | 16.17265 | 37966 ft | 436 kts | 283° |
| 2026-04-21 14:41 | 36.17179 | 16.09990 | 37964 ft | 436 kts | 283° |
| 2026-04-21 14:42 | 36.18580 | 16.02667 | 37967 ft | 436 kts | 283° |
| 2026-04-21 14:42 | 36.19967 | 15.95391 | 37959 ft | 436 kts | 283° |
| 2026-04-21 14:43 | 36.21359 | 15.88062 | 37964 ft | 436 kts | 283° |
| 2026-04-21 14:43 | 36.22744 | 15.80745 | 37960 ft | 436 kts | 283° |
| 2026-04-21 14:44 | 36.24126 | 15.73420 | 37955 ft | 436 kts | 283° |
| 2026-04-21 14:44 | 36.25496 | 15.66127 | 37955 ft | 436 kts | 283° |
| 2026-04-21 14:45 | 36.26866 | 15.58812 | 37958 ft | 436 kts | 283° |
| 2026-04-21 14:45 | 36.28237 | 15.51465 | 37961 ft | 436 kts | 283° |
| 2026-04-21 14:46 | 36.29600 | 15.44133 | 37952 ft | 436 kts | 283° |
| 2026-04-21 14:46 | 36.30952 | 15.36831 | 37955 ft | 436 kts | 283° |
| 2026-04-21 14:47 | 36.32306 | 15.29497 | 37949 ft | 436 kts | 283° |
| 2026-04-21 14:47 | 36.33658 | 15.22143 | 37954 ft | 436 kts | 283° |
| 2026-04-21 14:48 | 36.35004 | 15.14797 | 37950 ft | 436 kts | 282° |
| 2026-04-21 14:48 | 36.36338 | 15.07492 | 37950 ft | 436 kts | 282° |
| 2026-04-21 14:49 | 36.37674 | 15.00145 | 37949 ft | 436 kts | 282° |
| 2026-04-21 14:49 | 36.39007 | 14.92785 | 37949 ft | 436 kts | 282° |
| 2026-04-21 14:50 | 36.40110 | 14.86675 | 37944 ft | 436 kts | 282° |
| 2026-04-21 14:50 | 36.41648 | 14.78131 | 37949 ft | 436 kts | 282° |
| 2026-04-21 14:51 | 36.42969 | 14.70757 | 37946 ft | 436 kts | 282° |
| 2026-04-21 14:51 | 36.44274 | 14.63445 | 37949 ft | 436 kts | 282° |
| 2026-04-21 14:52 | 36.45584 | 14.56078 | 37943 ft | 436 kts | 282° |
| 2026-04-21 14:52 | 36.46882 | 14.48748 | 37947 ft | 436 kts | 282° |
| 2026-04-21 14:53 | 36.47964 | 14.42621 | 37941 ft | 436 kts | 282° |
| 2026-04-21 14:53 | 36.49241 | 14.35249 | 37944 ft | 436 kts | 280° |
| 2026-04-21 14:54 | 36.49582 | 14.27751 | 37947 ft | 437 kts | 266° |
| 2026-04-21 14:54 | 36.48927 | 14.20218 | 37943 ft | 438 kts | 264° |
| 2026-04-21 14:55 | 36.48101 | 14.12717 | 37943 ft | 438 kts | 264° |
| 2026-04-21 14:55 | 36.47266 | 14.05251 | 37940 ft | 438 kts | 264° |
| 2026-04-21 14:56 | 36.46442 | 13.97730 | 37939 ft | 438 kts | 264° |
| 2026-04-21 14:56 | 36.45625 | 13.90226 | 37938 ft | 438 kts | 264° |
| 2026-04-21 14:57 | 36.44806 | 13.82722 | 37940 ft | 438 kts | 264° |
| 2026-04-21 14:57 | 36.43987 | 13.75263 | 37938 ft | 439 kts | 264° |
| 2026-04-21 14:58 | 36.43157 | 13.67761 | 37939 ft | 439 kts | 263° |
| 2026-04-21 14:58 | 36.42321 | 13.60258 | 37940 ft | 439 kts | 263° |
| 2026-04-21 14:59 | 36.41480 | 13.52741 | 37938 ft | 439 kts | 263° |
| 2026-04-21 14:59 | 36.40634 | 13.45229 | 37934 ft | 439 kts | 263° |
| 2026-04-21 15:00 | 36.39785 | 13.37731 | 37934 ft | 439 kts | 263° |
| 2026-04-21 15:00 | 36.38934 | 13.30263 | 37940 ft | 439 kts | 263° |
| 2026-04-21 15:01 | 36.38139 | 13.22760 | 37934 ft | 438 kts | 267° |
| 2026-04-21 15:01 | 36.38379 | 13.15223 | 37931 ft | 437 kts | 276° |
| 2026-04-21 15:02 | 36.39040 | 13.07708 | 37931 ft | 438 kts | 277° |
| 2026-04-21 15:02 | 36.39762 | 13.00194 | 37935 ft | 438 kts | 277° |
| 2026-04-21 15:03 | 36.40463 | 12.92731 | 37934 ft | 438 kts | 276° |
| 2026-04-21 15:03 | 36.41151 | 12.85201 | 37933 ft | 438 kts | 276° |
| 2026-04-21 15:04 | 36.41828 | 12.77675 | 37932 ft | 438 kts | 276° |
| 2026-04-21 15:04 | 36.42501 | 12.70143 | 37930 ft | 439 kts | 276° |
| 2026-04-21 15:05 | 36.43170 | 12.62602 | 37933 ft | 439 kts | 276° |
| 2026-04-21 15:05 | 36.44161 | 12.51342 | 37932 ft | 439 kts | 276° |
| 2026-04-21 15:06 | 36.44818 | 12.43797 | 37936 ft | 439 kts | 276° |
| 2026-04-21 15:06 | 36.45472 | 12.36243 | 37929 ft | 439 kts | 276° |
| 2026-04-21 15:07 | 36.46120 | 12.28699 | 37829 ft | 437 kts | 276° |
| 2026-04-21 15:07 | 36.46436 | 12.24998 | 37100 ft | 437 kts | 276° |
| 2026-04-21 15:07 | 36.46757 | 12.21229 | 36164 ft | 442 kts | 276° |
| 2026-04-21 15:08 | 36.47081 | 12.17409 | 35292 ft | 446 kts | 276° |
| 2026-04-21 15:08 | 36.47406 | 12.13560 | 34462 ft | 449 kts | 276° |
| 2026-04-21 15:08 | 36.47732 | 12.09687 | 33605 ft | 452 kts | 276° |
| 2026-04-21 15:08 | 36.48058 | 12.05791 | 32654 ft | 455 kts | 276° |
| 2026-04-21 15:09 | 36.48386 | 12.01862 | 31727 ft | 458 kts | 276° |
| 2026-04-21 15:09 | 36.48714 | 11.97897 | 30897 ft | 459 kts | 276° |
| 2026-04-21 15:09 | 36.49036 | 11.94008 | 30184 ft | 458 kts | 276° |
| 2026-04-21 15:09 | 36.49360 | 11.90080 | 29425 ft | 456 kts | 277° |
| 2026-04-21 15:10 | 36.49683 | 11.86164 | 28740 ft | 453 kts | 276° |
| 2026-04-21 15:10 | 36.50273 | 11.82346 | 28115 ft | 447 kts | 287° |
| 2026-04-21 15:10 | 36.51344 | 11.78732 | 27507 ft | 443 kts | 292° |
| 2026-04-21 15:10 | 36.52557 | 11.75209 | 26869 ft | 441 kts | 294° |
| 2026-04-21 15:11 | 36.53801 | 11.71737 | 26338 ft | 435 kts | 292° |
| 2026-04-21 15:11 | 36.54753 | 11.68205 | 25693 ft | 424 kts | 284° |
| 2026-04-21 15:11 | 36.55249 | 11.64668 | 25194 ft | 411 kts | 277° |
| 2026-04-21 15:11 | 36.55523 | 11.61185 | 24822 ft | 406 kts | 276° |
| 2026-04-21 15:12 | 36.55762 | 11.57672 | 24048 ft | 410 kts | 275° |
| 2026-04-21 15:12 | 36.55994 | 11.54128 | 23217 ft | 406 kts | 275° |
| 2026-04-21 15:12 | 36.56213 | 11.50689 | 22233 ft | 391 kts | 275° |
| 2026-04-21 15:12 | 36.56429 | 11.47300 | 21181 ft | 397 kts | 275° |
| 2026-04-21 15:13 | 36.56647 | 11.43861 | 20435 ft | 399 kts | 276° |
| 2026-04-21 15:13 | 36.56863 | 11.40430 | 19796 ft | 397 kts | 276° |
| 2026-04-21 15:13 | 36.57077 | 11.37021 | 19203 ft | 394 kts | 276° |
| 2026-04-21 15:13 | 36.57288 | 11.33632 | 18612 ft | 386 kts | 276° |
| 2026-04-21 15:14 | 36.57488 | 11.30398 | 17843 ft | 378 kts | 276° |
| 2026-04-21 15:14 | 36.57689 | 11.27144 | 17264 ft | 374 kts | 276° |
| 2026-04-21 15:14 | 36.57888 | 11.23930 | 16745 ft | 369 kts | 276° |
| 2026-04-21 15:14 | 36.58082 | 11.20767 | 16241 ft | 365 kts | 276° |
| 2026-04-21 15:15 | 36.58273 | 11.17636 | 15740 ft | 360 kts | 276° |
| 2026-04-21 15:15 | 36.58461 | 11.14543 | 15250 ft | 356 kts | 275° |
| 2026-04-21 15:15 | 36.58646 | 11.11473 | 14754 ft | 353 kts | 275° |
| 2026-04-21 15:15 | 36.58829 | 11.08443 | 14268 ft | 350 kts | 275° |
| 2026-04-21 15:16 | 36.59009 | 11.05437 | 13779 ft | 347 kts | 275° |
| 2026-04-21 15:16 | 36.59185 | 11.02493 | 13244 ft | 343 kts | 275° |
| 2026-04-21 15:16 | 36.59361 | 10.99542 | 12770 ft | 339 kts | 275° |
| 2026-04-21 15:16 | 36.59534 | 10.96625 | 12286 ft | 336 kts | 275° |
| 2026-04-21 15:17 | 36.59704 | 10.93745 | 11804 ft | 333 kts | 275° |
| 2026-04-21 15:17 | 36.59872 | 10.90888 | 11342 ft | 330 kts | 275° |
| 2026-04-21 15:17 | 36.60037 | 10.88066 | 11071 ft | 320 kts | 274° |
| 2026-04-21 15:17 | 36.60194 | 10.85363 | 10958 ft | 306 kts | 274° |
| 2026-04-21 15:18 | 36.60344 | 10.82776 | 10850 ft | 293 kts | 274° |
| 2026-04-21 15:18 | 36.60485 | 10.80322 | 10736 ft | 281 kts | 274° |
| 2026-04-21 15:18 | 36.60621 | 10.77948 | 10623 ft | 269 kts | 274° |
| 2026-04-21 15:18 | 36.60754 | 10.75644 | 10350 ft | 267 kts | 274° |
| 2026-04-21 15:19 | 36.60886 | 10.73345 | 10027 ft | 266 kts | 274° |
| 2026-04-21 15:19 | 36.61018 | 10.71053 | 9708 ft | 265 kts | 274° |
| 2026-04-21 15:19 | 36.61148 | 10.68761 | 9395 ft | 266 kts | 274° |
| 2026-04-21 15:19 | 36.61278 | 10.66459 | 9088 ft | 266 kts | 274° |
| 2026-04-21 15:20 | 36.61406 | 10.64165 | 8788 ft | 265 kts | 274° |
| 2026-04-21 15:20 | 36.61534 | 10.61886 | 8485 ft | 264 kts | 274° |
| 2026-04-21 15:20 | 36.61662 | 10.59601 | 8180 ft | 264 kts | 274° |
| 2026-04-21 15:20 | 36.61788 | 10.57329 | 7870 ft | 263 kts | 274° |
| 2026-04-21 15:21 | 36.61914 | 10.55063 | 7573 ft | 262 kts | 274° |
| 2026-04-21 15:21 | 36.62036 | 10.52829 | 7276 ft | 261 kts | 274° |
| 2026-04-21 15:21 | 36.62161 | 10.50576 | 6970 ft | 260 kts | 274° |
| 2026-04-21 15:21 | 36.62285 | 10.48329 | 6674 ft | 260 kts | 274° |
| 2026-04-21 15:22 | 36.62410 | 10.46084 | 6363 ft | 259 kts | 274° |
| 2026-04-21 15:22 | 36.62533 | 10.43845 | 6057 ft | 258 kts | 274° |
| 2026-04-21 15:22 | 36.62655 | 10.41618 | 5773 ft | 258 kts | 274° |
| 2026-04-21 15:22 | 36.62777 | 10.39384 | 5453 ft | 259 kts | 273° |
| 2026-04-21 15:23 | 36.62898 | 10.37151 | 5234 ft | 259 kts | 273° |
| 2026-04-21 15:23 | 36.63019 | 10.34923 | 5029 ft | 254 kts | 274° |
| 2026-04-21 15:23 | 36.63132 | 10.32798 | 4932 ft | 244 kts | 274° |
| 2026-04-21 15:23 | 36.63245 | 10.30725 | 4827 ft | 233 kts | 274° |
| 2026-04-21 15:24 | 36.63352 | 10.28750 | 4732 ft | 223 kts | 273° |
| 2026-04-21 15:24 | 36.63452 | 10.26852 | 4501 ft | 219 kts | 273° |
| 2026-04-21 15:24 | 36.63553 | 10.24933 | 4069 ft | 224 kts | 273° |
| 2026-04-21 15:24 | 36.63656 | 10.22996 | 3751 ft | 224 kts | 273° |
| 2026-04-21 15:25 | 36.63760 | 10.21060 | 3457 ft | 222 kts | 273° |
| 2026-04-21 15:25 | 36.63864 | 10.19162 | 3176 ft | 222 kts | 274° |
| 2026-04-21 15:25 | 36.64335 | 10.17361 | 2877 ft | 219 kts | 305° |
| 2026-04-21 15:25 | 36.65475 | 10.16228 | 2817 ft | 206 kts | 339° |
| 2026-04-21 15:26 | 36.66820 | 10.16141 | 2824 ft | 189 kts | 15° |
| 2026-04-21 15:26 | 36.67953 | 10.16918 | 2814 ft | 187 kts | 34° |
| 2026-04-21 15:26 | 36.69025 | 10.17819 | 2804 ft | 180 kts | 33° |
| 2026-04-21 15:26 | 36.70094 | 10.18532 | 2780 ft | 171 kts | 18° |
| 2026-04-21 15:27 | 36.71233 | 10.18904 | 2546 ft | 167 kts | 11° |
| 2026-04-21 15:27 | 36.72331 | 10.19214 | 2317 ft | 160 kts | 13° |
| 2026-04-21 15:27 | 36.73400 | 10.19510 | 2101 ft | 150 kts | 12° |
| 2026-04-21 15:27 | 36.74389 | 10.19778 | 1916 ft | 145 kts | 13° |
| 2026-04-21 15:28 | 36.75369 | 10.20047 | 1726 ft | 144 kts | 13° |
| 2026-04-21 15:28 | 36.76347 | 10.20314 | 1524 ft | 144 kts | 13° |
| 2026-04-21 15:28 | 36.77322 | 10.20581 | 1346 ft | 143 kts | 13° |
| 2026-04-21 15:28 | 36.78291 | 10.20844 | 1162 ft | 142 kts | 14° |
| 2026-04-21 15:29 | 36.79255 | 10.21108 | 982 ft | 141 kts | 14° |
| 2026-04-21 15:29 | 36.80209 | 10.21368 | 792 ft | 139 kts | 13° |
| 2026-04-21 15:29 | 36.81139 | 10.21620 | 628 ft | 136 kts | 14° |
| 2026-04-21 15:29 | 36.82064 | 10.21874 | 433 ft | 137 kts | 11° |
| 2026-04-21 15:30 | 36.82996 | 10.22116 | 241 ft | 137 kts | 12° |
| 2026-04-21 15:30 | 36.83916 | 10.22378 | 56 ft | 136 kts | 12° |
| 2026-04-21 15:30 | 36.84779 | 10.22612 | 33 ft | 110 kts | 12° |
| 2026-04-21 15:30 | 36.85354 | 10.22768 | 34 ft | 70 kts | 13° |
| 2026-04-21 15:31 | 36.85734 | 10.22871 | 33 ft | 36 kts | 12° |
| 2026-04-21 15:31 | 36.85906 | 10.22910 | 33 ft | 16 kts | 358° |
| 2026-04-21 15:31 | 36.86003 | 10.22849 | 33 ft | 16 kts | 306° |
| 2026-04-21 15:31 | 36.86024 | 10.22713 | 34 ft | 16 kts | 251° |
| 2026-04-21 15:32 | 36.85930 | 10.22646 | 34 ft | 17 kts | 194° |
| 2026-04-21 15:32 | 36.85806 | 10.22611 | 34 ft | 19 kts | 191° |
| 2026-04-21 15:32 | 36.85746 | 10.22595 | 33 ft | 20 kts | 192° |
| 2026-04-21 15:32 | 36.85601 | 10.22556 | 33 ft | 22 kts | 192° |
| 2026-04-21 15:33 | 36.85444 | 10.22513 | 33 ft | 24 kts | 192° |
| 2026-04-21 15:33 | 36.85305 | 10.22476 | 33 ft | 17 kts | 192° |
| 2026-04-21 15:33 | 36.85189 | 10.22444 | 35 ft | 18 kts | 192° |
| 2026-04-21 15:33 | 36.85058 | 10.22409 | 33 ft | 21 kts | 193° |
| 2026-04-21 15:34 | 36.84910 | 10.22368 | 32 ft | 23 kts | 193° |
| 2026-04-21 15:34 | 36.84747 | 10.22326 | 31 ft | 25 kts | 191° |
| 2026-04-21 15:34 | 36.84597 | 10.22284 | 31 ft | 17 kts | 193° |
| 2026-04-21 15:34 | 36.84513 | 10.22257 | 30 ft | 10 kts | 208° |
| 2026-04-21 15:35 | 36.84501 | 10.22165 | 30 ft | 13 kts | 279° |
| 2026-04-21 15:35 | 36.84474 | 10.22058 | 31 ft | 11 kts | 250° |
| 2026-04-21 15:35 | 36.84511 | 10.21986 | 31 ft | 8 kts | 319° |
| 2026-04-21 15:35 | 36.84527 | 10.21970 | 31 ft | 0 kts | 321° |